Shelburne, Vermont
Current Conditions -  °F | °C
As of 4:54 PM on Sunday 25 Jan 2015 (Local Time) from KBTV Reporting Station
Few Clouds Few Clouds  
Wind Chill: -2°   Ceiling: Unl
Heat Index: 11°   Visibility: 10mi
Dew Point: -4°   Wind: 9mph
Humidity: 51%   Direction: 40°NE
Pressure: 29.92"   Gusts: NA
Location:  44.38°N, 73.23°W
Report Text: KBTV 252154Z 04008KT 10SM FEW035 M12/M20 A2992 RMK AO2 SLP138 T11171200
Loading
Personal Weather Stations






























Interactive Weather Map New forecast layout! Learn more

10-Day Weather Forecast

Advertisements
Track Severe Weather on mobile